sensor_id;sensor_type;location;lat;lon;timestamp;pressure;altitude;pressure_sealevel;temperature;humidity
7930;BME280;4010;42.698;23.124;2023-02-03T00:00:27;118349.16;;;-140.64;100.00
7930;BME280;4010;42.698;23.124;2023-02-03T00:02:56;118349.16;;;-140.64;100.00
7930;BME280;4010;42.698;23.124;2023-02-03T00:05:22;118349.16;;;-140.64;100.00
7930;BME280;4010;42.698;23.124;2023-02-03T00:07:51;118349.16;;;-140.64;100.00
7930;BME280;4010;42.698;23.124;2023-02-03T00:10:18;118349.16;;;-140.64;100.00
7930;BME280;4010;42.698;23.124;2023-02-03T00:12:46;118349.16;;;-140.64;100.00
7930;BME280;4010;42.698;23.124;2023-02-03T00:15:12;118349.16;;;-140.64;100.00
7930;BME280;4010;42.698;23.124;2023-02-03T00:17:39;118349.16;;;-140.64;100.00
7930;BME280;4010;42.698;23.124;2023-02-03T00:20:06;118349.16;;;-140.64;100.00
7930;BME280;4010;42.698;23.124;2023-02-03T00:22:33;118349.16;;;-140.64;100.00
7930;BME280;4010;42.698;23.124;2023-02-03T00:25:01;118349.16;;;-140.64;100.00
7930;BME280;4010;42.698;23.124;2023-02-03T00:27:27;118349.16;;;-140.64;100.00
7930;BME280;4010;42.698;23.124;2023-02-03T00:29:54;118349.16;;;-140.64;100.00
7930;BME280;4010;42.698;23.124;2023-02-03T00:32:21;118349.16;;;-140.64;100.00
7930;BME280;4010;42.698;23.124;2023-02-03T00:34:47;118349.16;;;-140.64;100.00
7930;BME280;4010;42.698;23.124;2023-02-03T00:37:14;118349.16;;;-140.64;100.00
7930;BME280;4010;42.698;23.124;2023-02-03T00:39:41;118349.16;;;-140.64;100.00
7930;BME280;4010;42.698;23.124;2023-02-03T00:42:09;118349.16;;;-140.64;100.00
7930;BME280;4010;42.698;23.124;2023-02-03T00:44:35;118349.16;;;-140.64;100.00
7930;BME280;4010;42.698;23.124;2023-02-03T00:47:02;118349.16;;;-140.64;100.00
7930;BME280;4010;42.698;23.124;2023-02-03T00:49:29;118349.16;;;-140.64;100.00
7930;BME280;4010;42.698;23.124;2023-02-03T00:51:55;118349.16;;;-140.64;100.00
7930;BME280;4010;42.698;23.124;2023-02-03T00:54:22;118349.16;;;-140.64;100.00
7930;BME280;4010;42.698;23.124;2023-02-03T00:56:49;118349.16;;;-140.64;100.00
7930;BME280;4010;42.698;23.124;2023-02-03T00:59:17;118349.16;;;-140.64;100.00
7930;BME280;4010;42.698;23.124;2023-02-03T01:01:43;118349.16;;;-140.64;100.00
7930;BME280;4010;42.698;23.124;2023-02-03T01:04:10;118349.16;;;-140.64;100.00
7930;BME280;4010;42.698;23.124;2023-02-03T01:06:39;118349.16;;;-140.64;100.00
7930;BME280;4010;42.698;23.124;2023-02-03T01:09:06;118349.16;;;-140.64;100.00
7930;BME280;4010;42.698;23.124;2023-02-03T01:11:33;118349.16;;;-140.64;100.00
7930;BME280;4010;42.698;23.124;2023-02-03T01:13:59;118349.16;;;-140.64;100.00
7930;BME280;4010;42.698;23.124;2023-02-03T01:16:29;118349.16;;;-140.64;100.00
7930;BME280;4010;42.698;23.124;2023-02-03T01:19:00;118349.16;;;-140.64;100.00
7930;BME280;4010;42.698;23.124;2023-02-03T01:21:26;118349.16;;;-140.64;100.00
7930;BME280;4010;42.698;23.124;2023-02-03T01:23:53;118349.16;;;-140.64;100.00
7930;BME280;4010;42.698;23.124;2023-02-03T01:26:22;118349.16;;;-140.64;100.00
7930;BME280;4010;42.698;23.124;2023-02-03T01:28:50;118349.16;;;-140.64;100.00
7930;BME280;4010;42.698;23.124;2023-02-03T01:31:18;118349.16;;;-140.64;100.00
7930;BME280;4010;42.698;23.124;2023-02-03T01:33:47;118349.16;;;-140.64;100.00
7930;BME280;4010;42.698;23.124;2023-02-03T01:36:15;118349.16;;;-140.64;100.00
7930;BME280;4010;42.698;23.124;2023-02-03T01:38:43;118349.16;;;-140.64;100.00
7930;BME280;4010;42.698;23.124;2023-02-03T01:41:12;118349.16;;;-140.64;100.00
7930;BME280;4010;42.698;23.124;2023-02-03T01:43:41;118349.16;;;-140.64;100.00
7930;BME280;4010;42.698;23.124;2023-02-03T01:46:21;118349.16;;;-140.64;100.00
7930;BME280;4010;42.698;23.124;2023-02-03T01:48:52;118349.16;;;-140.64;100.00
7930;BME280;4010;42.698;23.124;2023-02-03T01:51:20;118349.16;;;-140.64;100.00
7930;BME280;4010;42.698;23.124;2023-02-03T01:53:48;118349.16;;;-140.64;100.00
7930;BME280;4010;42.698;23.124;2023-02-03T01:56:17;118349.16;;;-140.64;100.00
7930;BME280;4010;42.698;23.124;2023-02-03T01:58:46;118349.16;;;-140.64;100.00
7930;BME280;4010;42.698;23.124;2023-02-03T02:01:14;118349.16;;;-140.64;100.00
7930;BME280;4010;42.698;23.124;2023-02-03T02:03:45;118349.16;;;-140.64;100.00
7930;BME280;4010;42.698;23.124;2023-02-03T02:06:14;118349.16;;;-140.64;100.00
7930;BME280;4010;42.698;23.124;2023-02-03T02:08:45;118349.16;;;-140.64;100.00
7930;BME280;4010;42.698;23.124;2023-02-03T02:11:13;118349.16;;;-140.64;100.00
7930;BME280;4010;42.698;23.124;2023-02-03T02:13:41;118349.16;;;-140.64;100.00
7930;BME280;4010;42.698;23.124;2023-02-03T02:16:11;118349.16;;;-140.64;100.00
7930;BME280;4010;42.698;23.124;2023-02-03T02:18:53;118349.16;;;-140.64;100.00
7930;BME280;4010;42.698;23.124;2023-02-03T02:21:44;118349.16;;;-140.64;100.00
7930;BME280;4010;42.698;23.124;2023-02-03T02:27:58;118349.16;;;-140.64;100.00
7930;BME280;4010;42.698;23.124;2023-02-03T02:30:38;118349.16;;;-140.64;100.00
7930;BME280;4010;42.698;23.124;2023-02-03T02:33:18;118349.16;;;-140.64;100.00
7930;BME280;4010;42.698;23.124;2023-02-03T02:35:56;118349.16;;;-140.64;100.00
7930;BME280;4010;42.698;23.124;2023-02-03T02:38:44;118349.16;;;-140.64;100.00
7930;BME280;4010;42.698;23.124;2023-02-03T02:41:16;118349.16;;;-140.64;100.00
7930;BME280;4010;42.698;23.124;2023-02-03T02:43:48;118349.16;;;-140.64;100.00
7930;BME280;4010;42.698;23.124;2023-02-03T02:46:21;118349.16;;;-140.64;99.88
7930;BME280;4010;42.698;23.124;2023-02-03T02:48:54;118349.16;;;-140.64;99.46
7930;BME280;4010;42.698;23.124;2023-02-03T02:51:23;118349.16;;;-140.64;98.04
7930;BME280;4010;42.698;23.124;2023-02-03T02:53:52;118349.16;;;-140.64;98.35
7930;BME280;4010;42.698;23.124;2023-02-03T02:56:20;118349.16;;;-140.64;98.16
7930;BME280;4010;42.698;23.124;2023-02-03T02:58:49;118349.16;;;-140.64;98.03
7930;BME280;4010;42.698;23.124;2023-02-03T03:01:17;118349.16;;;-140.64;97.73
7930;BME280;4010;42.698;23.124;2023-02-03T03:03:44;118349.16;;;-140.64;97.73
7930;BME280;4010;42.698;23.124;2023-02-03T03:06:16;118349.16;;;-140.64;97.70
7930;BME280;4010;42.698;23.124;2023-02-03T03:08:46;118349.16;;;-140.64;97.58
7930;BME280;4010;42.698;23.124;2023-02-03T03:11:15;118349.16;;;-140.64;97.21
7930;BME280;4010;42.698;23.124;2023-02-03T03:13:47;118349.16;;;-140.64;97.20
7930;BME280;4010;42.698;23.124;2023-02-03T03:16:15;118349.16;;;-140.64;97.97
7930;BME280;4010;42.698;23.124;2023-02-03T03:18:45;118349.16;;;-140.64;98.29
7930;BME280;4010;42.698;23.124;2023-02-03T03:21:19;118349.16;;;-140.64;98.22
7930;BME280;4010;42.698;23.124;2023-02-03T03:23:49;118349.16;;;-140.64;98.30
7930;BME280;4010;42.698;23.124;2023-02-03T03:26:23;118349.16;;;-140.64;98.10
7930;BME280;4010;42.698;23.124;2023-02-03T03:28:58;118349.16;;;-140.64;98.07
7930;BME280;4010;42.698;23.124;2023-02-03T03:31:26;118349.16;;;-140.64;98.39
7930;BME280;4010;42.698;23.124;2023-02-03T03:33:53;118349.16;;;-140.64;97.99
7930;BME280;4010;42.698;23.124;2023-02-03T03:36:24;118349.16;;;-140.64;97.90
7930;BME280;4010;42.698;23.124;2023-02-03T03:38:56;118349.16;;;-140.64;97.80
7930;BME280;4010;42.698;23.124;2023-02-03T03:41:35;118349.16;;;-140.64;97.75
7930;BME280;4010;42.698;23.124;2023-02-03T03:44:09;118349.16;;;-140.64;97.70
7930;BME280;4010;42.698;23.124;2023-02-03T03:46:42;118349.16;;;-140.64;97.91
7930;BME280;4010;42.698;23.124;2023-02-03T03:49:11;118349.16;;;-140.64;98.20
7930;BME280;4010;42.698;23.124;2023-02-03T03:51:43;118349.16;;;-140.64;97.73
7930;BME280;4010;42.698;23.124;2023-02-03T03:54:15;118349.16;;;-140.64;97.63
7930;BME280;4010;42.698;23.124;2023-02-03T03:56:48;118349.16;;;-140.64;97.75
7930;BME280;4010;42.698;23.124;2023-02-03T03:59:19;118349.16;;;-140.64;97.71
7930;BME280;4010;42.698;23.124;2023-02-03T04:01:48;118349.16;;;-140.64;97.64
7930;BME280;4010;42.698;23.124;2023-02-03T04:04:17;118349.16;;;-140.64;97.55
7930;BME280;4010;42.698;23.124;2023-02-03T04:06:46;118349.16;;;-140.64;97.55
7930;BME280;4010;42.698;23.124;2023-02-03T04:09:13;118349.16;;;-140.64;97.21
7930;BME280;4010;42.698;23.124;2023-02-03T04:11:39;118349.16;;;-140.64;97.23
7930;BME280;4010;42.698;23.124;2023-02-03T04:14:34;118349.16;;;-140.64;97.30
7930;BME280;4010;42.698;23.124;2023-02-03T04:17:03;118349.16;;;-140.64;97.56
7930;BME280;4010;42.698;23.124;2023-02-03T04:19:30;118349.16;;;-140.64;97.89
7930;BME280;4010;42.698;23.124;2023-02-03T04:21:58;118349.16;;;-140.64;98.10
7930;BME280;4010;42.698;23.124;2023-02-03T04:24:24;118349.16;;;-140.64;98.48
7930;BME280;4010;42.698;23.124;2023-02-03T04:26:51;118349.16;;;-140.64;98.42
7930;BME280;4010;42.698;23.124;2023-02-03T04:29:18;118349.16;;;-140.64;98.74
7930;BME280;4010;42.698;23.124;2023-02-03T04:31:44;118349.16;;;-140.64;98.31
7930;BME280;4010;42.698;23.124;2023-02-03T04:34:11;118349.16;;;-140.64;98.18
7930;BME280;4010;42.698;23.124;2023-02-03T04:36:38;118349.16;;;-140.64;98.13
7930;BME280;4010;42.698;23.124;2023-02-03T04:39:06;118349.16;;;-140.64;98.22
7930;BME280;4010;42.698;23.124;2023-02-03T04:41:33;118349.16;;;-140.64;97.95
7930;BME280;4010;42.698;23.124;2023-02-03T04:43:59;118349.16;;;-140.64;98.27
7930;BME280;4010;42.698;23.124;2023-02-03T04:46:26;118349.16;;;-140.64;98.34
7930;BME280;4010;42.698;23.124;2023-02-03T04:48:52;118349.16;;;-140.64;97.46
7930;BME280;4010;42.698;23.124;2023-02-03T04:51:19;118349.16;;;-140.64;97.63
7930;BME280;4010;42.698;23.124;2023-02-03T04:53:46;118349.16;;;-140.64;97.39
7930;BME280;4010;42.698;23.124;2023-02-03T04:56:14;118349.16;;;-140.64;97.29
7930;BME280;4010;42.698;23.124;2023-02-03T04:58:40;118349.16;;;-140.64;97.29
7930;BME280;4010;42.698;23.124;2023-02-03T05:01:08;118349.16;;;-140.64;97.02
7930;BME280;4010;42.698;23.124;2023-02-03T05:03:35;118349.16;;;-140.64;97.13
7930;BME280;4010;42.698;23.124;2023-02-03T05:06:02;118349.16;;;-140.64;97.32
7930;BME280;4010;42.698;23.124;2023-02-03T05:08:29;118349.16;;;-140.64;97.60
7930;BME280;4010;42.698;23.124;2023-02-03T05:10:56;118349.16;;;-140.64;97.59
7930;BME280;4010;42.698;23.124;2023-02-03T05:13:24;118349.16;;;-140.64;97.80
7930;BME280;4010;42.698;23.124;2023-02-03T05:15:51;118349.16;;;-140.64;97.51
7930;BME280;4010;42.698;23.124;2023-02-03T05:18:18;118349.16;;;-140.64;97.80
7930;BME280;4010;42.698;23.124;2023-02-03T05:20:45;118349.16;;;-140.64;98.09
7930;BME280;4010;42.698;23.124;2023-02-03T05:23:14;118349.16;;;-140.64;98.56
7930;BME280;4010;42.698;23.124;2023-02-03T05:25:42;118349.16;;;-140.64;98.58
7930;BME280;4010;42.698;23.124;2023-02-03T05:28:09;118349.16;;;-140.64;98.74
7930;BME280;4010;42.698;23.124;2023-02-03T05:30:37;118349.16;;;-140.64;98.68
7930;BME280;4010;42.698;23.124;2023-02-03T05:33:04;118349.16;;;-140.64;98.77
7930;BME280;4010;42.698;23.124;2023-02-03T05:35:30;118349.16;;;-140.64;98.36
7930;BME280;4010;42.698;23.124;2023-02-03T05:37:57;118349.16;;;-140.64;99.06
7930;BME280;4010;42.698;23.124;2023-02-03T05:40:25;118349.16;;;-140.64;98.76
7930;BME280;4010;42.698;23.124;2023-02-03T05:43:09;118349.16;;;-140.64;98.88
7930;BME280;4010;42.698;23.124;2023-02-03T05:45:37;118349.16;;;-140.64;98.74
7930;BME280;4010;42.698;23.124;2023-02-03T05:48:03;118349.16;;;-140.64;98.12
7930;BME280;4010;42.698;23.124;2023-02-03T05:50:32;118349.16;;;-140.64;98.44
7930;BME280;4010;42.698;23.124;2023-02-03T05:52:59;118349.16;;;-140.64;98.58
7930;BME280;4010;42.698;23.124;2023-02-03T05:55:27;118349.16;;;-140.64;98.78
7930;BME280;4010;42.698;23.124;2023-02-03T05:57:54;118349.16;;;-140.64;98.06
7930;BME280;4010;42.698;23.124;2023-02-03T06:00:23;118349.16;;;-140.64;97.73
7930;BME280;4010;42.698;23.124;2023-02-03T06:02:52;118349.16;;;-140.64;97.32
7930;BME280;4010;42.698;23.124;2023-02-03T06:05:19;118349.16;;;-140.64;97.01
7930;BME280;4010;42.698;23.124;2023-02-03T06:07:46;118349.16;;;-140.64;97.10
7930;BME280;4010;42.698;23.124;2023-02-03T06:10:14;118349.16;;;-140.64;97.14
7930;BME280;4010;42.698;23.124;2023-02-03T06:12:40;118349.16;;;-140.64;97.34
7930;BME280;4010;42.698;23.124;2023-02-03T06:15:08;118349.16;;;-140.64;97.09
7930;BME280;4010;42.698;23.124;2023-02-03T06:17:35;118349.16;;;-140.64;97.16
7930;BME280;4010;42.698;23.124;2023-02-03T06:20:04;118349.16;;;-140.64;96.90
7930;BME280;4010;42.698;23.124;2023-02-03T06:22:31;118349.16;;;-140.64;96.65
7930;BME280;4010;42.698;23.124;2023-02-03T06:24:58;118349.16;;;-140.64;96.34
7930;BME280;4010;42.698;23.124;2023-02-03T06:27:25;118349.16;;;-140.64;95.47
7930;BME280;4010;42.698;23.124;2023-02-03T06:29:52;118349.16;;;-140.64;94.68
7930;BME280;4010;42.698;23.124;2023-02-03T06:32:19;118349.16;;;-140.64;94.68
7930;BME280;4010;42.698;23.124;2023-02-03T06:34:45;118349.16;;;-140.64;93.57
7930;BME280;4010;42.698;23.124;2023-02-03T06:37:14;118349.16;;;-140.64;92.90
7930;BME280;4010;42.698;23.124;2023-02-03T06:39:40;118349.16;;;-140.64;92.48
7930;BME280;4010;42.698;23.124;2023-02-03T06:42:07;118349.16;;;-140.64;91.97
7930;BME280;4010;42.698;23.124;2023-02-03T06:44:34;118349.16;;;-140.64;91.99
7930;BME280;4010;42.698;23.124;2023-02-03T06:47:00;118349.16;;;-140.64;91.97
7930;BME280;4010;42.698;23.124;2023-02-03T06:49:27;118349.16;;;-140.64;92.23
7930;BME280;4010;42.698;23.124;2023-02-03T06:51:54;118349.16;;;-140.64;92.50
7930;BME280;4010;42.698;23.124;2023-02-03T06:54:22;118349.16;;;-140.64;91.79
7930;BME280;4010;42.698;23.124;2023-02-03T06:56:49;118349.16;;;-140.64;91.75
7930;BME280;4010;42.698;23.124;2023-02-03T06:59:15;118349.16;;;-140.64;91.53
7930;BME280;4010;42.698;23.124;2023-02-03T07:01:42;118349.16;;;-140.64;91.01
7930;BME280;4010;42.698;23.124;2023-02-03T07:04:09;118349.16;;;-140.64;89.71
7930;BME280;4010;42.698;23.124;2023-02-03T07:06:35;118349.16;;;-140.64;89.96
7930;BME280;4010;42.698;23.124;2023-02-03T07:09:03;118349.16;;;-140.64;89.07
7930;BME280;4010;42.698;23.124;2023-02-03T07:11:32;118349.16;;;-140.64;89.04
7930;BME280;4010;42.698;23.124;2023-02-03T07:13:58;118349.16;;;-140.64;88.75
7930;BME280;4010;42.698;23.124;2023-02-03T07:16:25;118349.16;;;-140.64;87.16
7930;BME280;4010;42.698;23.124;2023-02-03T07:18:52;118349.16;;;-140.64;87.48
7930;BME280;4010;42.698;23.124;2023-02-03T07:21:19;118349.16;;;-140.64;86.59
7930;BME280;4010;42.698;23.124;2023-02-03T07:23:46;118349.16;;;-140.64;84.65
7930;BME280;4010;42.698;23.124;2023-02-03T07:26:14;118349.16;;;-140.64;84.90
7930;BME280;4010;42.698;23.124;2023-02-03T07:28:42;118349.16;;;-140.64;85.35
7930;BME280;4010;42.698;23.124;2023-02-03T07:31:09;118349.16;;;-140.64;84.07
7930;BME280;4010;42.698;23.124;2023-02-03T07:33:35;118349.16;;;-140.64;83.76
7930;BME280;4010;42.698;23.124;2023-02-03T07:36:02;118349.16;;;-140.64;83.83
7930;BME280;4010;42.698;23.124;2023-02-03T07:38:29;118349.16;;;-140.64;82.92
7930;BME280;4010;42.698;23.124;2023-02-03T07:40:56;118349.16;;;-140.64;84.50
7930;BME280;4010;42.698;23.124;2023-02-03T07:43:23;118349.16;;;-140.64;83.57
7930;BME280;4010;42.698;23.124;2023-02-03T07:45:51;118349.16;;;-140.64;82.62
7930;BME280;4010;42.698;23.124;2023-02-03T07:48:18;118349.16;;;-140.64;83.04
7930;BME280;4010;42.698;23.124;2023-02-03T07:50:46;118349.16;;;-140.64;81.67
7930;BME280;4010;42.698;23.124;2023-02-03T07:53:13;118349.16;;;-140.64;81.66
7930;BME280;4010;42.698;23.124;2023-02-03T07:55:40;118349.16;;;-140.64;80.26
7930;BME280;4010;42.698;23.124;2023-02-03T07:58:06;118349.16;;;-140.64;79.41
7930;BME280;4010;42.698;23.124;2023-02-03T08:00:33;118349.16;;;-140.64;79.84
7930;BME280;4010;42.698;23.124;2023-02-03T08:03:02;118349.16;;;-140.64;77.71
7930;BME280;4010;42.698;23.124;2023-02-03T08:05:28;118349.16;;;-140.64;78.06
7930;BME280;4010;42.698;23.124;2023-02-03T08:07:55;118349.16;;;-140.64;76.44
7930;BME280;4010;42.698;23.124;2023-02-03T08:10:23;118349.16;;;-140.64;77.32
7930;BME280;4010;42.698;23.124;2023-02-03T08:12:52;118349.16;;;-140.64;77.44
7930;BME280;4010;42.698;23.124;2023-02-03T08:15:19;118349.16;;;-140.64;77.21
7930;BME280;4010;42.698;23.124;2023-02-03T08:17:45;118349.16;;;-140.64;79.08
7930;BME280;4010;42.698;23.124;2023-02-03T08:20:14;118349.16;;;-140.64;76.26
7930;BME280;4010;42.698;23.124;2023-02-03T08:22:40;118349.16;;;-140.64;78.21
7930;BME280;4010;42.698;23.124;2023-02-03T08:25:07;118349.16;;;-140.64;79.35
7930;BME280;4010;42.698;23.124;2023-02-03T08:27:34;118349.16;;;-140.64;78.48
7930;BME280;4010;42.698;23.124;2023-02-03T08:30:01;118349.16;;;-140.64;77.59
7930;BME280;4010;42.698;23.124;2023-02-03T08:32:28;118349.16;;;-140.64;76.82
7930;BME280;4010;42.698;23.124;2023-02-03T08:34:54;118349.16;;;-140.64;78.11
7930;BME280;4010;42.698;23.124;2023-02-03T08:37:22;118349.16;;;-140.64;77.56
7930;BME280;4010;42.698;23.124;2023-02-03T08:39:49;118349.16;;;-140.64;77.69
7930;BME280;4010;42.698;23.124;2023-02-03T08:42:17;118349.16;;;-140.64;78.10
7930;BME280;4010;42.698;23.124;2023-02-03T08:44:43;118349.16;;;-140.64;80.17
7930;BME280;4010;42.698;23.124;2023-02-03T08:47:10;118349.16;;;-140.64;80.22
7930;BME280;4010;42.698;23.124;2023-02-03T08:49:38;118349.16;;;-140.64;81.50
7930;BME280;4010;42.698;23.124;2023-02-03T08:52:06;118349.16;;;-140.64;81.80
7930;BME280;4010;42.698;23.124;2023-02-03T08:54:34;118349.16;;;-140.64;82.89
7930;BME280;4010;42.698;23.124;2023-02-03T08:57:01;118349.16;;;-140.64;83.44
7930;BME280;4010;42.698;23.124;2023-02-03T08:59:28;118349.16;;;-140.64;83.27
7930;BME280;4010;42.698;23.124;2023-02-03T09:01:56;118349.16;;;-140.64;83.01
7930;BME280;4010;42.698;23.124;2023-02-03T09:04:24;118349.16;;;-140.64;82.39
7930;BME280;4010;42.698;23.124;2023-02-03T09:06:51;118349.16;;;-140.64;82.15
7930;BME280;4010;42.698;23.124;2023-02-03T09:09:19;118349.16;;;-140.64;82.27
7930;BME280;4010;42.698;23.124;2023-02-03T09:11:47;118349.16;;;-140.64;82.62
7930;BME280;4010;42.698;23.124;2023-02-03T09:14:14;118349.16;;;-140.64;81.85
7930;BME280;4010;42.698;23.124;2023-02-03T09:16:41;118349.16;;;-140.64;83.00
7930;BME280;4010;42.698;23.124;2023-02-03T09:19:07;118349.16;;;-140.64;80.43
7930;BME280;4010;42.698;23.124;2023-02-03T09:21:34;118349.16;;;-140.64;80.60
7930;BME280;4010;42.698;23.124;2023-02-03T09:24:01;118349.16;;;-140.64;78.60
7930;BME280;4010;42.698;23.124;2023-02-03T09:26:28;118349.16;;;-140.64;78.75
7930;BME280;4010;42.698;23.124;2023-02-03T09:28:56;118349.16;;;-140.64;80.04
7930;BME280;4010;42.698;23.124;2023-02-03T09:31:23;118349.16;;;-140.64;79.34
7930;BME280;4010;42.698;23.124;2023-02-03T09:33:49;118349.16;;;-140.64;77.61
7930;BME280;4010;42.698;23.124;2023-02-03T09:36:16;118349.16;;;-140.64;76.14
7930;BME280;4010;42.698;23.124;2023-02-03T09:38:42;118349.16;;;-140.64;75.93
7930;BME280;4010;42.698;23.124;2023-02-03T09:41:17;118349.16;;;-140.64;77.65
7930;BME280;4010;42.698;23.124;2023-02-03T09:43:48;118349.16;;;-140.64;75.98
7930;BME280;4010;42.698;23.124;2023-02-03T09:46:21;118349.16;;;-140.64;76.46
7930;BME280;4010;42.698;23.124;2023-02-03T09:48:52;118349.16;;;-140.64;75.56
7930;BME280;4010;42.698;23.124;2023-02-03T09:51:22;118349.16;;;-140.64;74.48
7930;BME280;4010;42.698;23.124;2023-02-03T09:53:55;118349.16;;;-140.64;74.56
7930;BME280;4010;42.698;23.124;2023-02-03T09:56:28;118349.16;;;-140.64;72.08
7930;BME280;4010;42.698;23.124;2023-02-03T09:58:55;118349.16;;;-140.64;72.58
7930;BME280;4010;42.698;23.124;2023-02-03T10:01:24;118349.16;;;-140.64;71.71
7930;BME280;4010;42.698;23.124;2023-02-03T10:04:00;118349.16;;;-140.64;71.45
7930;BME280;4010;42.698;23.124;2023-02-03T10:06:32;118349.16;;;-140.64;72.72
7930;BME280;4010;42.698;23.124;2023-02-03T10:09:15;118349.16;;;-140.64;74.11
7930;BME280;4010;42.698;23.124;2023-02-03T10:12:00;118349.16;;;-140.64;72.88
7930;BME280;4010;42.698;23.124;2023-02-03T10:14:41;118349.16;;;-140.64;75.22
7930;BME280;4010;42.698;23.124;2023-02-03T10:17:21;118349.16;;;-140.64;76.46
7930;BME280;4010;42.698;23.124;2023-02-03T10:19:57;118349.16;;;-140.64;71.35
7930;BME280;4010;42.698;23.124;2023-02-03T10:22:28;118349.16;;;-140.64;69.42
7930;BME280;4010;42.698;23.124;2023-02-03T10:24:58;118349.16;;;-140.64;69.79
7930;BME280;4010;42.698;23.124;2023-02-03T10:27:26;118349.16;;;-140.64;66.78
7930;BME280;4010;42.698;23.124;2023-02-03T10:29:58;118349.16;;;-140.64;67.37
7930;BME280;4010;42.698;23.124;2023-02-03T10:32:27;118349.16;;;-140.64;67.40
7930;BME280;4010;42.698;23.124;2023-02-03T10:34:54;118349.16;;;-140.64;67.11
7930;BME280;4010;42.698;23.124;2023-02-03T10:37:26;118349.16;;;-140.64;65.55
7930;BME280;4010;42.698;23.124;2023-02-03T10:39:54;118349.16;;;-140.64;65.04
7930;BME280;4010;42.698;23.124;2023-02-03T10:42:22;118349.16;;;-140.64;64.39
7930;BME280;4010;42.698;23.124;2023-02-03T10:44:52;118349.16;;;-140.64;63.30
7930;BME280;4010;42.698;23.124;2023-02-03T10:47:28;118349.16;;;-140.64;61.81
7930;BME280;4010;42.698;23.124;2023-02-03T10:50:02;118349.16;;;-140.64;63.63
7930;BME280;4010;42.698;23.124;2023-02-03T10:52:33;118349.16;;;-140.64;59.12
7930;BME280;4010;42.698;23.124;2023-02-03T10:55:05;118349.16;;;-140.64;61.12
7930;BME280;4010;42.698;23.124;2023-02-03T10:57:34;118349.16;;;-140.64;57.75
7930;BME280;4010;42.698;23.124;2023-02-03T11:00:20;118349.16;;;-140.64;58.23
7930;BME280;4010;42.698;23.124;2023-02-03T11:02:55;118349.16;;;-140.64;57.31
7930;BME280;4010;42.698;23.124;2023-02-03T11:05:23;118349.16;;;-140.64;55.63
7930;BME280;4010;42.698;23.124;2023-02-03T11:07:51;118349.16;;;-140.64;58.12
7930;BME280;4010;42.698;23.124;2023-02-03T11:10:29;118349.16;;;-140.64;55.89
7930;BME280;4010;42.698;23.124;2023-02-03T11:13:16;118349.16;;;-140.64;56.42
7930;BME280;4010;42.698;23.124;2023-02-03T11:15:50;118349.16;;;-140.64;57.50
7930;BME280;4010;42.698;23.124;2023-02-03T11:18:37;118349.16;;;-140.64;56.58
7930;BME280;4010;42.698;23.124;2023-02-03T11:21:13;118349.16;;;-140.64;57.47
7930;BME280;4010;42.698;23.124;2023-02-03T11:23:46;118349.16;;;-140.64;57.96
7930;BME280;4010;42.698;23.124;2023-02-03T11:26:18;118349.16;;;-140.64;57.75
7930;BME280;4010;42.698;23.124;2023-02-03T11:28:46;118349.16;;;-140.64;58.70
7930;BME280;4010;42.698;23.124;2023-02-03T11:31:16;118349.16;;;-140.64;60.14
7930;BME280;4010;42.698;23.124;2023-02-03T11:33:47;118349.16;;;-140.64;59.68
7930;BME280;4010;42.698;23.124;2023-02-03T11:36:16;118349.16;;;-140.64;59.84
7930;BME280;4010;42.698;23.124;2023-02-03T11:38:43;118349.16;;;-140.64;59.41
7930;BME280;4010;42.698;23.124;2023-02-03T11:41:14;118349.16;;;-140.64;60.48
7930;BME280;4010;42.698;23.124;2023-02-03T11:43:41;118349.16;;;-140.64;58.27
7930;BME280;4010;42.698;23.124;2023-02-03T11:46:08;118349.16;;;-140.64;57.00
7930;BME280;4010;42.698;23.124;2023-02-03T11:48:36;118349.16;;;-140.64;56.98
7930;BME280;4010;42.698;23.124;2023-02-03T11:51:16;118349.16;;;-140.64;54.53
7930;BME280;4010;42.698;23.124;2023-02-03T11:54:00;118349.16;;;-140.64;55.53
7930;BME280;4010;42.698;23.124;2023-02-03T11:56:33;118349.16;;;-140.64;54.70
7930;BME280;4010;42.698;23.124;2023-02-03T11:59:30;118349.16;;;-140.64;56.62
7930;BME280;4010;42.698;23.124;2023-02-03T12:05:09;118349.16;;;-140.64;53.49
7930;BME280;4010;42.698;23.124;2023-02-03T12:07:50;118349.16;;;-140.64;54.11
7930;BME280;4010;42.698;23.124;2023-02-03T12:10:30;118349.16;;;-140.64;54.04
7930;BME280;4010;42.698;23.124;2023-02-03T12:13:10;118349.16;;;-140.64;53.59
7930;BME280;4010;42.698;23.124;2023-02-03T12:15:58;118349.16;;;-140.64;54.97
7930;BME280;4010;42.698;23.124;2023-02-03T12:18:35;118349.16;;;-140.64;56.33
7930;BME280;4010;42.698;23.124;2023-02-03T12:21:26;118349.16;;;-140.64;57.06
7930;BME280;4010;42.698;23.124;2023-02-03T12:24:01;118349.16;;;-140.64;56.69
7930;BME280;4010;42.698;23.124;2023-02-03T12:26:34;118349.16;;;-140.64;57.36
7930;BME280;4010;42.698;23.124;2023-02-03T12:29:08;118349.16;;;-140.64;56.51
7930;BME280;4010;42.698;23.124;2023-02-03T12:31:38;118349.16;;;-140.64;57.56
7930;BME280;4010;42.698;23.124;2023-02-03T12:34:14;118349.16;;;-140.64;57.32
7930;BME280;4010;42.698;23.124;2023-02-03T12:36:45;118349.16;;;-140.64;57.29
7930;BME280;4010;42.698;23.124;2023-02-03T12:39:19;118349.16;;;-140.64;58.14
7930;BME280;4010;42.698;23.124;2023-02-03T12:41:54;118349.16;;;-140.64;57.60
7930;BME280;4010;42.698;23.124;2023-02-03T12:44:28;118349.16;;;-140.64;57.71
7930;BME280;4010;42.698;23.124;2023-02-03T12:47:02;118349.16;;;-140.64;57.05
7930;BME280;4010;42.698;23.124;2023-02-03T12:49:39;118349.16;;;-140.64;56.42
7930;BME280;4010;42.698;23.124;2023-02-03T12:52:15;118349.16;;;-140.64;56.15
7930;BME280;4010;42.698;23.124;2023-02-03T12:54:48;118349.16;;;-140.64;56.74
7930;BME280;4010;42.698;23.124;2023-02-03T12:57:22;118349.16;;;-140.64;56.52